createdAt,value
2019-03-04T00:01:30.867Z,8.90
2019-03-04T00:04:01.778Z,10.47
2019-03-04T00:06:32.413Z,9.23
2019-03-04T00:09:02.830Z,11.10
2019-03-04T00:11:34.970Z,10.30
2019-03-04T00:14:05.330Z,10.40
2019-03-04T00:16:36.161Z,9.77
2019-03-04T00:19:06.576Z,9.67
2019-03-04T00:21:37.931Z,8.37
2019-03-04T00:24:08.359Z,9.00
2019-03-04T00:26:39.018Z,8.63
2019-03-04T00:29:11.483Z,7.97
2019-03-04T00:31:41.956Z,9.27
2019-03-04T00:34:12.586Z,8.10
2019-03-04T00:36:43.968Z,7.57
2019-03-04T00:39:14.297Z,7.80
2019-03-04T00:41:44.803Z,7.37
2019-03-04T00:44:15.524Z,7.40
2019-03-04T00:46:47.206Z,8.00
2019-03-04T00:49:17.460Z,7.00
2019-03-04T00:51:47.837Z,6.53
2019-03-04T00:54:18.427Z,6.23
2019-03-04T00:56:48.763Z,6.03
2019-03-04T00:59:19.154Z,7.20
2019-03-04T01:01:49.859Z,7.17
2019-03-04T01:04:20.152Z,6.33
2019-03-04T01:06:50.726Z,6.50
2019-03-04T01:09:21.502Z,6.23
2019-03-04T01:11:52.043Z,6.37
2019-03-04T01:14:22.692Z,5.80
2019-03-04T01:16:53.142Z,6.37
2019-03-04T01:19:23.493Z,7.03
2019-03-04T01:21:54.195Z,6.80
2019-03-04T01:24:24.537Z,6.50
2019-03-04T01:26:54.875Z,6.93
2019-03-04T01:29:25.530Z,6.60
2019-03-04T01:31:56.046Z,6.83
2019-03-04T01:34:26.438Z,6.63
2019-03-04T01:36:57.120Z,8.27
2019-03-04T01:39:27.905Z,8.67
2019-03-04T01:41:58.272Z,13.67
2019-03-04T01:44:28.852Z,14.67
2019-03-04T01:46:59.563Z,14.73
2019-03-04T01:49:29.874Z,14.67
2019-03-04T01:52:00.250Z,14.57
2019-03-04T01:54:30.931Z,15.50
2019-03-04T01:57:01.271Z,15.63
2019-03-04T01:59:31.588Z,16.17
2019-03-04T02:02:02.263Z,15.33
2019-03-04T02:04:32.668Z,16.17
2019-03-04T02:07:03.015Z,17.70
2019-03-04T02:09:34.012Z,17.07
2019-03-04T02:12:04.702Z,18.93
2019-03-04T02:14:35.034Z,18.93
2019-03-04T02:17:05.400Z,18.90
2019-03-04T02:19:35.809Z,18.97
2019-03-04T02:22:06.183Z,19.10
2019-03-04T02:24:37.541Z,19.30
2019-03-04T02:27:07.878Z,19.77
2019-03-04T02:29:38.601Z,19.27
2019-03-04T02:32:09.069Z,20.13
2019-03-04T02:34:39.422Z,18.67
2019-03-04T02:37:10.462Z,19.97
2019-03-04T02:39:41.070Z,20.50
2019-03-04T02:42:11.391Z,20.97
2019-03-04T02:44:42.149Z,20.77
2019-03-04T02:47:12.860Z,21.83
2019-03-04T02:49:43.160Z,21.80
2019-03-04T02:52:13.530Z,20.77
2019-03-04T02:54:43.939Z,21.20
2019-03-04T02:57:14.638Z,19.93
2019-03-04T02:59:45.371Z,20.93
2019-03-04T03:02:15.682Z,19.70
2019-03-04T03:04:46.413Z,20.13
2019-03-04T03:07:17.174Z,17.67
2019-03-04T03:09:47.603Z,18.10
2019-03-04T03:12:18.116Z,19.43
2019-03-04T03:14:48.814Z,18.77
2019-03-04T03:17:19.214Z,17.43
2019-03-04T03:19:49.554Z,18.50
2019-03-04T03:22:20.118Z,17.47
2019-03-04T03:24:50.758Z,18.30
2019-03-04T03:27:21.525Z,18.77
2019-03-04T03:29:52.213Z,22.17
2019-03-04T03:32:22.913Z,22.47
2019-03-04T03:34:54.642Z,22.13
2019-03-04T03:37:25.131Z,21.80
2019-03-04T03:39:55.502Z,22.50
2019-03-04T03:42:26.284Z,20.50
2019-03-04T03:44:56.631Z,21.73
2019-03-04T03:47:26.895Z,21.83
2019-03-04T03:49:57.304Z,21.47
2019-03-04T03:52:27.711Z,21.57
2019-03-04T03:54:58.107Z,22.47
2019-03-04T03:57:28.858Z,20.67
2019-03-04T03:59:59.616Z,18.43
2019-03-04T04:02:29.955Z,20.57
2019-03-04T04:05:00.722Z,21.40
2019-03-04T04:07:31.379Z,24.90
2019-03-04T04:10:01.847Z,23.23
2019-03-04T04:12:33.354Z,20.03
2019-03-04T04:15:04.367Z,21.53
2019-03-04T04:17:34.722Z,20.27
2019-03-04T04:20:06.237Z,25.37
2019-03-04T04:22:36.720Z,22.00
2019-03-04T04:25:07.720Z,21.33
2019-03-04T04:27:38.330Z,21.40
2019-03-04T04:30:09.398Z,24.33
2019-03-04T04:32:39.947Z,24.37
2019-03-04T04:35:11.244Z,25.40
2019-03-04T04:37:41.604Z,23.83
2019-03-04T04:40:12.394Z,24.40
2019-03-04T04:42:42.888Z,23.00
2019-03-04T04:45:13.409Z,24.97
2019-03-04T04:47:43.703Z,25.07
2019-03-04T04:50:14.610Z,31.10
2019-03-04T04:52:45.075Z,31.43
2019-03-04T04:55:15.450Z,31.40
2019-03-04T04:57:46.011Z,29.20
2019-03-04T05:00:16.704Z,27.73
2019-03-04T05:02:47.380Z,29.77
2019-03-04T05:05:17.809Z,28.33
2019-03-04T05:07:48.120Z,27.63
2019-03-04T05:10:19.235Z,26.27
2019-03-04T05:12:49.777Z,27.80
2019-03-04T05:15:20.050Z,26.23
2019-03-04T05:17:50.765Z,26.43
2019-03-04T05:20:22.358Z,27.67
2019-03-04T05:22:52.713Z,24.73
2019-03-04T05:25:23.515Z,25.77
2019-03-04T05:27:54.322Z,23.93
2019-03-04T05:30:24.863Z,25.93
2019-03-04T05:32:55.423Z,24.77
2019-03-04T05:35:25.808Z,22.40
2019-03-04T05:37:56.442Z,23.53
2019-03-04T05:40:28.348Z,22.57
2019-03-04T05:42:58.779Z,24.00
2019-03-04T05:45:29.628Z,21.77
2019-03-04T05:48:00.249Z,21.70
2019-03-04T05:50:31.562Z,22.17
2019-03-04T05:53:02.232Z,21.20
2019-03-04T05:55:32.977Z,20.73
2019-03-04T05:58:03.407Z,22.87
2019-03-04T06:00:38.498Z,24.83
2019-03-04T06:03:09.678Z,19.13
2019-03-04T06:05:40.559Z,20.37
2019-03-04T06:08:11.275Z,20.47
2019-03-04T06:10:41.678Z,22.07
2019-03-04T06:13:12.209Z,21.47
2019-03-04T06:15:42.661Z,20.57
2019-03-04T06:18:13.019Z,19.90
2019-03-04T06:20:43.553Z,18.50
2019-03-04T06:23:14.543Z,18.97
2019-03-04T06:25:44.919Z,19.90
2019-03-04T06:28:15.359Z,16.73
2019-03-04T06:30:46.167Z,20.23
2019-03-04T06:33:16.609Z,17.53
2019-03-04T06:35:47.346Z,19.07
2019-03-04T06:38:17.636Z,17.07
2019-03-04T06:40:48.085Z,14.10
2019-03-04T06:43:18.874Z,14.70
2019-03-04T06:45:49.265Z,15.37
2019-03-04T06:48:19.558Z,14.53
2019-03-04T06:50:54.673Z,13.90
2019-03-04T06:53:44.388Z,16.47
2019-03-04T06:56:35.106Z,18.40
2019-03-04T06:59:13.569Z,20.17
2019-03-04T07:01:48.159Z,16.47
2019-03-04T07:04:32.534Z,17.73
2019-03-04T07:07:03.158Z,19.53
2019-03-04T07:09:33.504Z,19.00
2019-03-04T07:12:04.073Z,22.37
2019-03-04T07:14:34.428Z,26.27
2019-03-04T07:17:04.751Z,27.40
2019-03-04T07:19:37.077Z,23.03
2019-03-04T07:22:07.475Z,25.17
2019-03-04T07:24:37.789Z,25.70
2019-03-04T07:27:08.523Z,25.00
2019-03-04T07:29:39.274Z,23.77
2019-03-04T07:32:09.925Z,24.30
2019-03-04T07:34:40.436Z,26.10
2019-03-04T07:37:11.027Z,27.20
2019-03-04T07:39:41.388Z,24.93
2019-03-04T07:42:13.145Z,22.90
2019-03-04T07:44:43.526Z,25.17
2019-03-04T07:47:14.252Z,20.23
2019-03-04T07:49:49.566Z,19.57
2019-03-04T07:52:19.989Z,19.00
2019-03-04T07:54:50.688Z,17.20
2019-03-04T07:57:21.582Z,18.43
2019-03-04T07:59:52.049Z,20.37
2019-03-04T08:02:22.666Z,18.60
2019-03-04T08:04:53.354Z,19.30
2019-03-04T08:07:45.317Z,18.73
2019-03-04T08:10:42.519Z,18.53
2019-03-04T08:13:17.732Z,17.93
2019-03-04T08:15:50.427Z,16.23
2019-03-04T08:18:20.772Z,16.37
2019-03-04T08:20:51.604Z,16.50
2019-03-04T08:23:22.052Z,17.83
2019-03-04T08:25:52.383Z,18.60
2019-03-04T08:28:23.285Z,17.47
2019-03-04T08:30:53.943Z,16.97
2019-03-04T08:33:24.276Z,17.70
2019-03-04T08:35:55.351Z,17.47
2019-03-04T08:38:26.022Z,18.80
2019-03-04T08:40:56.368Z,16.80
2019-03-04T08:43:26.968Z,17.57
2019-03-04T08:45:58.827Z,18.70
2019-03-04T08:48:29.265Z,22.97
2019-03-04T08:51:02.253Z,17.17
2019-03-04T08:53:32.058Z,18.83
2019-03-04T08:56:02.656Z,18.20
2019-03-04T08:58:34.380Z,21.30
2019-03-04T09:01:04.995Z,20.30
2019-03-04T09:03:35.622Z,17.87
2019-03-04T09:06:06.298Z,19.40
2019-03-04T09:08:36.642Z,21.57
2019-03-04T09:11:06.974Z,20.43
2019-03-04T09:13:37.392Z,21.07
2019-03-04T09:16:07.675Z,23.43
2019-03-04T09:18:38.632Z,21.83
2019-03-04T09:21:09.067Z,22.67
2019-03-04T09:23:39.745Z,23.07
2019-03-04T09:26:11.715Z,22.20
2019-03-04T09:28:42.100Z,24.03
2019-03-04T09:31:13.558Z,20.93
2019-03-04T09:33:44.513Z,21.57
2019-03-04T09:36:14.837Z,21.97
2019-03-04T09:38:45.225Z,21.30
2019-03-04T09:41:15.794Z,19.50
2019-03-04T09:43:46.195Z,19.40
2019-03-04T09:46:16.488Z,22.20
2019-03-04T09:48:47.186Z,19.43
2019-03-04T09:51:24.405Z,19.43
2019-03-04T09:53:50.242Z,18.60
2019-03-04T09:56:20.657Z,16.90
2019-03-04T09:58:51.050Z,15.33
2019-03-04T10:01:28.942Z,14.57
2019-03-04T10:04:19.122Z,4.43
2019-03-04T10:07:08.342Z,2.30
2019-03-04T10:10:11.710Z,2.73
2019-03-04T10:13:23.562Z,1.83
2019-03-04T10:16:41.073Z,2.30
2019-03-04T10:19:36.226Z,1.83
2019-03-04T10:22:33.484Z,3.13
2019-03-04T10:25:38.966Z,2.57
2019-03-04T10:28:44.623Z,1.97
2019-03-04T10:31:48.709Z,1.90
2019-03-04T10:34:58.581Z,2.10
2019-03-04T10:38:11.707Z,2.00
2019-03-04T10:40:57.743Z,2.20
2019-03-04T10:44:10.488Z,2.63
2019-03-04T10:46:52.442Z,1.90
2019-03-04T10:49:22.847Z,2.20
2019-03-04T10:51:53.462Z,2.20
2019-03-04T10:54:24.482Z,2.67
2019-03-04T10:56:54.777Z,2.17
2019-03-04T10:59:25.224Z,2.80
2019-03-04T11:01:55.619Z,1.90
2019-03-04T11:04:26.344Z,2.10
2019-03-04T11:06:57.133Z,2.50
2019-03-04T11:09:27.457Z,2.70
2019-03-04T11:11:57.909Z,2.20
2019-03-04T11:14:28.455Z,2.17
2019-03-04T11:16:58.748Z,2.23
2019-03-04T11:19:29.153Z,2.20
2019-03-04T11:21:59.697Z,2.00
2019-03-04T11:24:30.496Z,1.90
2019-03-04T11:27:00.801Z,1.43
2019-03-04T11:29:31.645Z,2.50
2019-03-04T11:32:02.246Z,2.43
2019-03-04T11:34:35.095Z,2.10
2019-03-04T11:37:05.517Z,2.10
2019-03-04T11:39:54.803Z,2.47
2019-03-04T11:42:25.565Z,2.30
2019-03-04T11:44:55.976Z,2.23
2019-03-04T11:47:27.255Z,1.80
2019-03-04T11:49:58.848Z,1.90
2019-03-04T11:52:29.169Z,2.50
2019-03-04T11:54:59.820Z,2.40
2019-03-04T11:57:30.488Z,2.00
2019-03-04T12:00:01.359Z,2.50
2019-03-04T12:02:38.871Z,2.43
2019-03-04T12:05:05.330Z,1.67
2019-03-04T12:07:35.634Z,1.97
2019-03-04T12:10:08.939Z,2.50
2019-03-04T12:12:40.584Z,2.60
2019-03-04T12:15:13.714Z,2.20
2019-03-04T12:17:44.644Z,2.40
2019-03-04T12:20:15.833Z,2.07
2019-03-04T12:22:46.182Z,2.27
2019-03-04T12:25:16.933Z,2.00
2019-03-04T12:27:47.901Z,2.10
2019-03-04T12:30:19.276Z,2.60
2019-03-04T12:32:50.122Z,3.20
2019-03-04T12:35:20.819Z,2.43
2019-03-04T12:37:51.185Z,2.40
2019-03-04T12:40:21.737Z,2.53
2019-03-04T12:42:52.612Z,2.10
2019-03-04T12:45:33.465Z,1.80
2019-03-04T12:47:55.315Z,2.50
2019-03-04T12:50:26.334Z,3.37
2019-03-04T12:52:56.950Z,2.40
2019-03-04T12:55:27.543Z,2.87
2019-03-04T12:57:58.071Z,2.97
2019-03-04T13:00:29.216Z,3.27
2019-03-04T13:02:59.645Z,2.10
2019-03-04T13:05:30.330Z,3.33
2019-03-04T13:08:00.715Z,3.07
2019-03-04T13:10:31.879Z,2.93
2019-03-04T13:13:02.303Z,2.83
2019-03-04T13:15:32.958Z,3.03
2019-03-04T13:25:22.433Z,2.60
2019-03-04T13:27:52.710Z,3.20
2019-03-04T13:30:23.875Z,2.73
2019-03-04T13:32:54.417Z,3.40
2019-03-04T13:35:25.165Z,2.93
2019-03-04T13:37:55.817Z,2.60
2019-03-04T13:40:26.225Z,2.67
2019-03-04T13:42:56.515Z,2.30
2019-03-04T13:45:27.307Z,3.53
2019-03-04T13:47:57.899Z,2.87
2019-03-04T13:50:28.199Z,3.00
2019-03-04T13:52:59.035Z,2.97
2019-03-04T13:55:29.786Z,2.70
2019-03-04T13:58:00.278Z,3.03
2019-03-04T14:00:31.686Z,2.87
2019-03-04T14:03:02.134Z,2.93
2019-03-04T14:05:32.422Z,3.03
2019-03-04T14:08:03.301Z,2.70
2019-03-04T14:10:34.970Z,2.57
2019-03-04T14:13:05.673Z,3.30
2019-03-04T14:15:38.157Z,2.73
2019-03-04T14:18:08.867Z,3.50
2019-03-04T14:20:39.234Z,2.83
2019-03-04T14:23:10.189Z,2.90
2019-03-04T14:25:40.859Z,3.67
2019-03-04T14:28:11.436Z,3.07
2019-03-04T14:30:41.744Z,3.57
2019-03-04T14:33:12.075Z,4.30
2019-03-04T14:35:42.727Z,3.10
2019-03-04T14:38:13.285Z,3.63
2019-03-04T14:40:43.590Z,2.97
2019-03-04T14:43:14.410Z,3.13
2019-03-04T14:45:45.091Z,3.20
2019-03-04T14:48:15.506Z,4.10
2019-03-04T14:50:46.161Z,4.27
2019-03-04T14:53:16.786Z,3.13
2019-03-04T14:55:47.202Z,3.23
2019-03-04T14:58:17.735Z,3.43
2019-03-04T15:00:49.909Z,4.77
2019-03-04T15:03:23.590Z,3.47
2019-03-04T15:05:52.823Z,2.87
2019-03-04T15:08:23.242Z,3.50
2019-03-04T15:10:53.607Z,2.83
2019-03-04T15:13:24.343Z,3.63
2019-03-04T15:16:02.508Z,6.77
2019-03-04T15:18:26.937Z,3.47
2019-03-04T15:20:58.873Z,3.70
2019-03-04T15:23:29.191Z,3.63
2019-03-04T15:26:01.100Z,4.00
2019-03-04T15:28:31.841Z,4.87
2019-03-04T15:31:02.336Z,4.30
2019-03-04T15:33:32.934Z,4.50
2019-03-04T15:36:03.669Z,4.07
2019-03-04T15:38:34.460Z,4.57
2019-03-04T15:41:04.861Z,5.63
2019-03-04T15:43:35.630Z,3.87
2019-03-04T15:46:06.694Z,3.90
2019-03-04T15:48:36.986Z,5.50
2019-03-04T15:51:08.611Z,4.20
2019-03-04T15:53:39.557Z,5.83
2019-03-04T15:56:09.859Z,4.50
2019-03-04T15:58:40.461Z,4.37
2019-03-04T16:01:12.876Z,5.70
2019-03-04T16:03:43.203Z,5.20
2019-03-04T16:06:14.129Z,6.87
2019-03-04T16:08:44.405Z,4.80
2019-03-04T16:11:15.198Z,6.00
2019-03-04T16:13:52.997Z,6.97
2019-03-04T16:16:17.993Z,8.43
2019-03-04T16:18:48.625Z,7.77
2019-03-04T16:21:19.169Z,7.60
2019-03-04T16:23:49.764Z,6.73
2019-03-04T16:26:20.123Z,7.97
2019-03-04T16:28:50.814Z,7.70
2019-03-04T16:31:21.145Z,7.80
2019-03-04T16:33:51.416Z,9.07
2019-03-04T16:36:21.920Z,9.53
2019-03-04T16:38:52.550Z,6.83
2019-03-04T16:41:23.323Z,8.60
2019-03-04T16:43:53.627Z,7.83
2019-03-04T16:46:23.996Z,5.70
2019-03-04T16:48:54.809Z,5.77
2019-03-04T16:51:25.092Z,7.63
2019-03-04T16:53:55.520Z,11.33
2019-03-04T16:56:26.081Z,9.77
2019-03-04T16:58:56.554Z,12.23
2019-03-04T17:01:27.104Z,8.63
2019-03-04T17:03:57.480Z,10.47
2019-03-04T17:06:27.915Z,9.07
2019-03-04T17:08:58.333Z,10.40
2019-03-04T17:11:28.630Z,12.77
2019-03-04T17:13:59.051Z,15.47
2019-03-04T17:16:29.843Z,10.93
2019-03-04T17:19:00.407Z,6.43
2019-03-04T17:21:30.921Z,7.13
2019-03-04T17:24:01.946Z,7.33
2019-03-04T17:26:33.404Z,14.00
2019-03-04T17:29:03.850Z,10.63
2019-03-04T17:31:34.433Z,5.80
2019-03-04T17:34:05.462Z,5.10
2019-03-04T17:36:35.822Z,4.83
2019-03-04T17:39:07.372Z,6.57
2019-03-04T17:41:38.839Z,5.00
2019-03-04T17:44:09.624Z,3.97
2019-03-04T17:46:40.454Z,4.63
2019-03-04T17:49:10.879Z,4.87
2019-03-04T17:51:41.330Z,3.70
2019-03-04T17:54:11.859Z,3.87
2019-03-04T17:56:42.229Z,4.40
2019-03-04T17:59:12.760Z,5.03
2019-03-04T18:01:43.333Z,5.63
2019-03-04T18:04:13.653Z,6.27
2019-03-04T18:06:44.015Z,5.03
2019-03-04T18:09:15.366Z,5.90
2019-03-04T18:11:45.823Z,6.33
2019-03-04T18:14:16.497Z,4.77
2019-03-04T18:16:46.785Z,3.93
2019-03-04T18:19:17.264Z,5.60
2019-03-04T18:21:47.819Z,6.03
2019-03-04T18:24:18.209Z,5.20
2019-03-04T18:27:05.947Z,4.20
2019-03-04T18:30:13.777Z,4.13
2019-03-04T18:33:13.473Z,4.83
2019-03-04T18:36:20.943Z,6.33
2019-03-04T18:39:41.874Z,4.17
2019-03-04T18:42:49.759Z,7.53
2019-03-04T18:45:48.173Z,8.03
2019-03-04T18:48:50.888Z,10.70
2019-03-04T18:51:21.408Z,7.23
2019-03-04T18:53:52.956Z,6.33
2019-03-04T18:56:23.546Z,5.10
2019-03-04T18:58:53.826Z,6.43
2019-03-04T19:01:24.348Z,5.80
2019-03-04T19:03:54.676Z,7.70
2019-03-04T19:06:25.150Z,4.73
2019-03-04T19:08:56.019Z,9.00
2019-03-04T19:11:26.735Z,5.97
2019-03-04T19:13:57.250Z,5.73
2019-03-04T19:16:28.138Z,7.67
2019-03-04T19:18:58.789Z,6.40
2019-03-04T19:21:29.088Z,5.13
2019-03-04T19:23:59.803Z,4.30
2019-03-04T19:26:30.155Z,5.27
2019-03-04T19:29:00.999Z,4.90
2019-03-04T19:31:31.434Z,4.97
2019-03-04T19:34:01.814Z,4.33
2019-03-04T19:36:32.267Z,4.20
2019-03-04T19:39:04.532Z,4.50
2019-03-04T19:41:35.896Z,5.30
2019-03-04T19:44:06.504Z,6.23
2019-03-04T19:46:37.198Z,6.07
2019-03-04T19:49:08.800Z,5.73
2019-03-04T19:51:39.647Z,5.50
2019-03-04T19:54:10.429Z,6.83
2019-03-04T19:56:40.726Z,5.57
2019-03-04T19:59:11.051Z,6.43
2019-03-04T20:01:42.119Z,6.80
2019-03-04T20:04:12.776Z,7.00
2019-03-04T20:06:43.119Z,5.10
2019-03-04T20:09:14.095Z,6.80
2019-03-04T20:11:44.895Z,4.50
2019-03-04T20:14:15.454Z,3.70
2019-03-04T20:16:45.948Z,4.30
2019-03-04T20:19:16.981Z,4.03
2019-03-04T20:21:47.364Z,4.27
2019-03-04T20:24:18.135Z,4.53
2019-03-04T20:26:48.576Z,4.63
2019-03-04T20:29:19.153Z,3.57
2019-03-04T20:31:49.610Z,4.10
2019-03-04T20:34:20.222Z,3.90
2019-03-04T20:36:50.725Z,3.93
2019-03-04T20:39:21.873Z,3.70
2019-03-04T20:41:52.384Z,4.20
2019-03-04T20:44:23.888Z,4.20
2019-03-04T20:46:54.568Z,4.13
2019-03-04T20:49:24.980Z,4.20
2019-03-04T20:51:55.342Z,4.17
2019-03-04T20:54:26.132Z,4.10
2019-03-04T20:56:56.517Z,4.33
2019-03-04T20:59:27.281Z,4.20
2019-03-04T21:01:57.642Z,4.10
2019-03-04T21:04:28.066Z,3.97
2019-03-04T21:06:58.797Z,4.27
2019-03-04T21:09:29.722Z,4.47
2019-03-04T21:12:00.174Z,4.47
2019-03-04T21:14:30.810Z,4.17
2019-03-04T21:17:01.302Z,4.80
2019-03-04T21:19:31.706Z,4.70
2019-03-04T21:22:02.306Z,5.23
2019-03-04T21:24:33.098Z,5.40
2019-03-04T21:27:03.456Z,14.37
2019-03-04T21:30:33.168Z,15.23
2019-03-04T21:33:15.803Z,13.83
2019-03-04T21:36:16.928Z,14.30
2019-03-04T21:38:47.410Z,14.07
2019-03-04T21:42:00.674Z,12.87
2019-03-04T21:44:50.309Z,12.83
2019-03-04T21:47:27.996Z,15.27
2019-03-04T21:49:58.888Z,15.90
2019-03-04T21:52:42.199Z,14.93
2019-03-04T21:55:20.376Z,10.40
2019-03-04T21:57:54.431Z,11.13
2019-03-04T22:00:36.160Z,11.00
2019-03-04T22:03:39.127Z,10.40
2019-03-04T22:06:10.676Z,11.03
2019-03-04T22:08:41.315Z,11.30
2019-03-04T22:11:11.698Z,10.40
2019-03-04T22:13:42.731Z,11.50
2019-03-04T22:16:14.562Z,13.13
2019-03-04T22:18:45.268Z,18.63
2019-03-04T22:21:17.025Z,13.97
2019-03-04T22:23:47.949Z,16.40
2019-03-04T22:26:19.190Z,17.13
2019-03-04T22:28:49.781Z,17.07
2019-03-04T22:31:20.148Z,17.57
2019-03-04T22:33:50.473Z,20.73
2019-03-04T22:36:20.825Z,17.57
2019-03-04T22:38:51.470Z,20.10
2019-03-04T22:41:22.219Z,15.43
2019-03-04T22:43:53.171Z,17.30
2019-03-04T22:46:23.489Z,16.60
2019-03-04T22:48:54.044Z,16.60
2019-03-04T22:51:24.667Z,16.90
2019-03-04T22:53:55.134Z,15.57
2019-03-04T22:56:25.495Z,14.50
2019-03-04T22:58:56.074Z,14.50
2019-03-04T23:01:40.502Z,14.53
2019-03-04T23:04:25.393Z,10.70
2019-03-04T23:07:10.628Z,11.70
2019-03-04T23:10:00.134Z,11.73
2019-03-04T23:12:48.266Z,11.37
2019-03-04T23:15:22.324Z,12.33
2019-03-04T23:17:52.374Z,11.33
2019-03-04T23:20:23.317Z,11.77
2019-03-04T23:22:53.615Z,12.70
2019-03-04T23:25:24.134Z,14.13
2019-03-04T23:27:54.930Z,12.73
2019-03-04T23:30:25.301Z,12.30
2019-03-04T23:32:55.585Z,13.07
2019-03-04T23:35:26.384Z,10.87
2019-03-04T23:37:57.109Z,11.23
2019-03-04T23:40:27.741Z,11.07
2019-03-04T23:42:58.392Z,11.63
2019-03-04T23:45:28.722Z,12.40
2019-03-04T23:47:59.350Z,12.33
2019-03-04T23:50:29.901Z,12.00
2019-03-04T23:53:00.183Z,11.37
2019-03-04T23:55:30.984Z,10.70
2019-03-04T23:58:01.655Z,11.57
